createdAt,value
2018-03-14T00:02:07.510Z,7.07
2018-03-14T00:04:35.996Z,6.53
2018-03-14T00:07:03.441Z,7.37
2018-03-14T00:09:30.999Z,6.90
2018-03-14T00:11:59.243Z,6.50
2018-03-14T00:14:27.061Z,6.60
2018-03-14T00:16:55.498Z,7.30
2018-03-14T00:19:23.644Z,7.00
2018-03-14T00:21:51.146Z,6.90
2018-03-14T00:24:18.615Z,7.90
2018-03-14T00:26:46.874Z,7.23
2018-03-14T00:29:14.362Z,7.73
2018-03-14T00:31:41.819Z,8.17
2018-03-14T00:34:10.054Z,6.40
2018-03-14T00:36:38.335Z,8.07
2018-03-14T00:39:06.322Z,8.90
2018-03-14T00:41:33.798Z,9.40
2018-03-14T00:44:01.280Z,8.40
2018-03-14T00:46:28.866Z,8.43
2018-03-14T00:48:56.342Z,8.90
2018-03-14T00:51:23.892Z,8.13
2018-03-14T00:53:51.354Z,9.90
2018-03-14T00:56:18.822Z,8.70
2018-03-14T00:58:46.308Z,9.50
2018-03-14T01:01:13.865Z,9.67
2018-03-14T01:03:41.350Z,10.23
2018-03-14T01:11:15.705Z,10.30
2018-03-14T01:13:43.167Z,10.07
2018-03-14T01:16:10.655Z,11.03
2018-03-14T01:18:38.478Z,9.23
2018-03-14T01:23:44.971Z,11.00
2018-03-14T01:26:12.466Z,10.83
2018-03-14T01:28:39.939Z,9.77
2018-03-14T01:31:08.180Z,9.67
2018-03-14T01:33:35.660Z,9.33
2018-03-14T01:36:05.639Z,10.47
2018-03-14T01:38:33.117Z,10.77
2018-03-14T01:41:01.333Z,9.37
2018-03-14T01:43:28.809Z,8.63
2018-03-14T01:45:56.275Z,10.40
2018-03-14T01:48:23.766Z,9.50
2018-03-14T01:50:51.238Z,9.73
2018-03-14T01:53:28.016Z,10.30
2018-03-14T01:55:56.271Z,9.20
2018-03-14T01:58:23.835Z,9.30
2018-03-14T02:00:52.078Z,8.50
2018-03-14T02:03:19.549Z,8.33
2018-03-14T02:05:47.026Z,8.27
2018-03-14T02:08:14.492Z,8.43
2018-03-14T02:10:42.743Z,7.77
2018-03-14T02:13:10.206Z,8.40
2018-03-14T02:15:37.676Z,8.87
2018-03-14T02:18:05.150Z,8.57
2018-03-14T02:20:32.636Z,8.10
2018-03-14T02:23:00.095Z,8.20
2018-03-14T02:25:27.559Z,7.47
2018-03-14T02:27:55.031Z,9.13
2018-03-14T02:30:24.012Z,7.90
2018-03-14T02:32:51.476Z,7.57
2018-03-14T02:35:18.945Z,8.73
2018-03-14T02:37:46.415Z,7.30
2018-03-14T02:40:14.698Z,7.30
2018-03-14T02:42:42.955Z,7.00
2018-03-14T02:45:11.200Z,7.53
2018-03-14T02:47:38.679Z,8.83
2018-03-14T02:50:06.145Z,9.47
2018-03-14T02:52:33.629Z,8.30
2018-03-14T02:55:01.889Z,8.07
2018-03-14T02:57:29.359Z,7.00
2018-03-14T02:59:57.597Z,7.13
2018-03-14T03:02:25.987Z,6.63
2018-03-14T03:04:53.588Z,6.97
2018-03-14T03:07:21.114Z,7.13
2018-03-14T03:09:48.669Z,8.17
2018-03-14T03:12:16.915Z,6.97
2018-03-14T03:14:44.395Z,7.83
2018-03-14T03:17:11.963Z,8.37
2018-03-14T03:19:39.430Z,8.90
2018-03-14T03:22:07.567Z,8.57
2018-03-14T03:24:35.109Z,7.77
2018-03-14T03:27:02.578Z,8.20
2018-03-14T03:29:30.045Z,9.37
2018-03-14T03:31:57.505Z,7.80
2018-03-14T03:34:26.693Z,8.40
2018-03-14T03:36:54.163Z,8.63
2018-03-14T03:39:21.630Z,8.77
2018-03-14T03:41:49.111Z,11.63
2018-03-14T03:44:17.355Z,7.17
2018-03-14T03:46:44.822Z,9.23
2018-03-14T03:49:12.295Z,9.50
2018-03-14T03:51:40.531Z,7.43
2018-03-14T03:54:08.004Z,7.33
2018-03-14T03:56:35.524Z,8.70
2018-03-14T03:59:02.994Z,9.80
2018-03-14T04:01:30.461Z,8.40
2018-03-14T04:03:57.934Z,8.73
2018-03-14T04:06:25.383Z,8.30
2018-03-14T04:08:52.854Z,12.20
2018-03-14T04:11:20.331Z,9.27
2018-03-14T04:13:48.561Z,10.93
2018-03-14T04:16:16.033Z,9.53
2018-03-14T04:18:43.498Z,12.63
2018-03-14T04:21:13.515Z,12.13
2018-03-14T04:23:40.987Z,10.67
2018-03-14T04:26:08.450Z,12.07
2018-03-14T04:28:36.685Z,10.87
2018-03-14T04:31:04.157Z,12.50
2018-03-14T04:33:31.626Z,17.77
2018-03-14T04:35:59.101Z,14.40
2018-03-14T04:38:27.367Z,19.20
2018-03-14T04:40:55.611Z,14.80
2018-03-14T04:43:23.077Z,14.80
2018-03-14T04:45:50.545Z,14.00
2018-03-14T04:48:18.014Z,18.50
2018-03-14T04:50:46.276Z,19.40
2018-03-14T04:53:13.780Z,17.77
2018-03-14T04:55:41.246Z,23.33
2018-03-14T04:58:08.729Z,20.00
2018-03-14T05:00:36.212Z,16.57
2018-03-14T05:03:03.678Z,22.70
2018-03-14T05:05:31.919Z,25.93
2018-03-14T05:08:00.183Z,21.50
2018-03-14T05:10:27.651Z,24.50
2018-03-14T05:12:55.126Z,25.23
2018-03-14T05:15:22.598Z,25.00
2018-03-14T05:17:50.823Z,24.57
2018-03-14T05:20:18.304Z,23.97
2018-03-14T05:22:45.771Z,26.83
2018-03-14T05:25:13.243Z,28.87
2018-03-14T05:27:41.482Z,26.80
2018-03-14T05:30:08.967Z,32.00
2018-03-14T05:32:36.426Z,32.67
2018-03-14T05:35:04.675Z,26.80
2018-03-14T05:37:32.150Z,30.60
2018-03-14T05:39:59.624Z,30.87
2018-03-14T05:42:27.887Z,33.77
2018-03-14T05:44:55.403Z,35.00
2018-03-14T05:47:22.863Z,29.90
2018-03-14T05:49:50.338Z,27.77
2018-03-14T05:52:17.815Z,26.60
2018-03-14T05:54:46.117Z,26.20
2018-03-14T05:57:13.575Z,24.80
2018-03-14T05:59:41.094Z,31.93
2018-03-14T06:02:08.542Z,37.03
2018-03-14T06:04:36.118Z,30.07
2018-03-14T06:07:03.599Z,28.20
2018-03-14T06:09:31.060Z,24.47
2018-03-14T06:11:58.542Z,27.73
2018-03-14T06:14:26.011Z,24.83
2018-03-14T06:16:53.515Z,21.30
2018-03-14T06:19:22.757Z,27.90
2018-03-14T06:21:50.270Z,18.53
2018-03-14T06:24:18.516Z,21.67
2018-03-14T06:26:45.995Z,20.57
2018-03-14T06:29:13.578Z,23.47
2018-03-14T06:31:41.043Z,31.00
2018-03-14T06:34:08.560Z,30.10
2018-03-14T06:36:36.074Z,32.83
2018-03-14T06:39:03.530Z,25.00
2018-03-14T06:41:30.999Z,21.47
2018-03-14T06:43:58.490Z,25.63
2018-03-14T06:46:25.973Z,26.03
2018-03-14T06:48:54.211Z,26.50
2018-03-14T06:51:21.683Z,23.93
2018-03-14T06:53:49.149Z,21.70
2018-03-14T06:56:17.388Z,21.00
2018-03-14T06:58:56.665Z,20.97
2018-03-14T07:01:36.154Z,23.30
2018-03-14T07:04:15.609Z,26.03
2018-03-14T07:06:43.085Z,25.10
2018-03-14T07:09:10.541Z,24.73
2018-03-14T07:11:38.002Z,19.57
2018-03-14T07:14:05.482Z,23.83
2018-03-14T07:16:32.943Z,22.90
2018-03-14T07:19:00.463Z,28.30
2018-03-14T07:21:27.926Z,22.87
2018-03-14T07:23:55.479Z,19.70
2018-03-14T07:26:22.942Z,23.23
2018-03-14T07:28:50.407Z,17.43
2018-03-14T07:31:18.637Z,22.17
2018-03-14T07:33:46.085Z,22.30
2018-03-14T07:36:13.607Z,20.37
2018-03-14T07:38:41.941Z,18.80
2018-03-14T07:41:09.402Z,26.63
2018-03-14T07:43:36.975Z,21.30
2018-03-14T07:46:04.438Z,25.03
2018-03-14T07:48:31.898Z,23.13
2018-03-14T07:50:59.372Z,23.97
2018-03-14T07:53:27.618Z,24.83
2018-03-14T07:55:55.187Z,23.93
2018-03-14T07:58:23.464Z,25.87
2018-03-14T08:00:51.679Z,23.90
2018-03-14T08:03:19.968Z,25.40
2018-03-14T08:05:47.505Z,22.60
2018-03-14T08:08:14.931Z,25.80
2018-03-14T08:10:43.158Z,23.97
2018-03-14T08:13:10.679Z,23.33
2018-03-14T08:15:39.516Z,21.63
2018-03-14T08:18:06.980Z,23.40
2018-03-14T08:20:34.465Z,21.80
2018-03-14T08:23:02.693Z,21.60
2018-03-14T08:25:30.152Z,23.93
2018-03-14T08:27:57.636Z,23.43
2018-03-14T08:30:25.109Z,21.67
2018-03-14T08:32:52.668Z,19.13
2018-03-14T08:35:20.148Z,19.50
2018-03-14T08:37:48.374Z,16.43
2018-03-14T08:40:15.856Z,16.70
2018-03-14T08:42:43.409Z,15.40
2018-03-14T08:45:10.982Z,14.67
2018-03-14T08:47:39.201Z,13.93
2018-03-14T08:50:06.686Z,14.33
2018-03-14T08:52:34.138Z,15.10
2018-03-14T08:55:01.632Z,13.80
2018-03-14T08:57:29.876Z,14.23
2018-03-14T08:59:57.333Z,14.07
2018-03-14T09:02:24.809Z,14.07
2018-03-14T09:04:54.063Z,13.10
2018-03-14T09:07:21.540Z,12.43
2018-03-14T09:09:49.015Z,10.80
2018-03-14T09:12:16.483Z,11.40
2018-03-14T09:14:44.719Z,11.00
2018-03-14T09:17:12.175Z,9.97
2018-03-14T09:19:39.647Z,9.60
2018-03-14T09:22:07.098Z,9.40
2018-03-14T09:24:34.551Z,10.20
2018-03-14T09:27:02.026Z,10.07
2018-03-14T09:29:29.494Z,10.50
2018-03-14T09:31:56.961Z,9.10
2018-03-14T09:34:25.242Z,10.57
2018-03-14T09:36:52.658Z,11.67
2018-03-14T09:39:20.912Z,12.40
2018-03-14T09:41:48.383Z,12.23
2018-03-14T09:44:15.847Z,14.00
2018-03-14T09:46:43.302Z,12.37
2018-03-14T09:49:10.776Z,11.23
2018-03-14T09:51:38.243Z,10.87
2018-03-14T09:54:06.447Z,12.70
2018-03-14T09:56:34.062Z,12.07
2018-03-14T09:59:01.580Z,10.40
2018-03-14T10:01:28.994Z,10.40
2018-03-14T10:03:56.536Z,9.30
2018-03-14T10:06:24.100Z,9.20
2018-03-14T10:08:51.563Z,8.60
2018-03-14T10:11:19.117Z,9.80
2018-03-14T10:13:47.345Z,6.43
2018-03-14T10:16:14.901Z,7.63
2018-03-14T10:18:42.367Z,8.27
2018-03-14T10:21:09.818Z,6.60
2018-03-14T10:23:37.279Z,6.83
2018-03-14T10:26:04.931Z,6.57
2018-03-14T10:28:32.394Z,7.00
2018-03-14T10:30:59.855Z,6.43
2018-03-14T10:33:27.335Z,6.37
2018-03-14T10:35:54.797Z,6.53
2018-03-14T10:38:22.255Z,6.50
2018-03-14T10:40:49.841Z,6.90
2018-03-14T10:43:17.299Z,6.50
2018-03-14T10:45:45.531Z,7.77
2018-03-14T10:48:13.008Z,7.97
2018-03-14T10:50:40.475Z,8.00
2018-03-14T10:53:07.934Z,6.63
2018-03-14T10:55:36.187Z,8.20
2018-03-14T10:58:03.757Z,9.67
2018-03-14T11:00:36.990Z,8.97
2018-03-14T11:03:04.447Z,7.77
2018-03-14T11:05:31.898Z,8.33
2018-03-14T11:07:59.418Z,9.00
2018-03-14T11:10:27.656Z,8.70
2018-03-14T11:12:55.543Z,5.87
2018-03-14T11:15:25.650Z,5.00
2018-03-14T11:17:53.111Z,4.70
2018-03-14T11:20:20.601Z,6.07
2018-03-14T11:22:48.045Z,5.50
2018-03-14T11:25:15.502Z,4.80
2018-03-14T11:27:42.958Z,5.33
2018-03-14T11:30:10.432Z,5.80
2018-03-14T11:32:37.916Z,6.33
2018-03-14T11:35:05.365Z,4.10
2018-03-14T11:37:34.208Z,5.10
2018-03-14T11:40:01.750Z,4.90
2018-03-14T11:42:29.217Z,5.13
2018-03-14T11:44:56.679Z,4.40
2018-03-14T11:47:24.140Z,4.60
2018-03-14T11:49:51.716Z,6.60
2018-03-14T11:52:19.180Z,4.27
2018-03-14T11:54:47.406Z,5.63
2018-03-14T11:57:14.896Z,5.10
2018-03-14T11:59:42.671Z,5.20
2018-03-14T12:02:10.128Z,5.67
2018-03-14T12:09:13.435Z,5.50
2018-03-14T12:11:41.011Z,5.50
2018-03-14T12:14:09.274Z,6.27
2018-03-14T12:16:36.739Z,5.47
2018-03-14T12:19:04.187Z,6.13
2018-03-14T12:21:31.767Z,6.47
2018-03-14T12:24:00.023Z,5.30
2018-03-14T12:26:27.478Z,5.80
2018-03-14T12:28:54.936Z,5.33
2018-03-14T12:31:22.403Z,5.77
2018-03-14T12:33:49.854Z,5.93
2018-03-14T12:36:17.403Z,6.30
2018-03-14T12:38:44.872Z,5.73
2018-03-14T12:41:12.427Z,7.20
2018-03-14T12:43:39.983Z,7.27
2018-03-14T12:46:08.967Z,7.40
2018-03-14T12:48:36.548Z,8.83
2018-03-14T12:51:04.090Z,6.37
2018-03-14T12:53:31.566Z,7.03
2018-03-14T12:55:59.829Z,7.80
2018-03-14T12:58:27.291Z,7.43
2018-03-14T13:00:55.562Z,8.53
2018-03-14T13:03:23.026Z,6.90
2018-03-14T13:05:51.272Z,7.10
2018-03-14T13:08:19.109Z,6.47
2018-03-14T13:10:46.558Z,8.00
2018-03-14T13:13:14.017Z,7.73
2018-03-14T13:15:41.531Z,8.10
2018-03-14T13:18:09.020Z,7.17
2018-03-14T13:20:37.270Z,8.10
2018-03-14T13:23:04.821Z,6.63
2018-03-14T13:25:32.310Z,6.83
2018-03-14T13:27:59.738Z,7.70
2018-03-14T13:30:28.092Z,7.60
2018-03-14T13:32:55.750Z,6.57
2018-03-14T13:35:23.186Z,7.57
2018-03-14T13:37:50.671Z,10.40
2018-03-14T13:40:18.145Z,11.53
2018-03-14T13:42:46.261Z,14.47
2018-03-14T13:45:14.670Z,14.07
2018-03-14T13:47:42.135Z,14.03
2018-03-14T13:50:09.598Z,15.63
2018-03-14T13:52:37.071Z,13.07
2018-03-14T13:55:05.303Z,13.40
2018-03-14T13:57:32.770Z,15.43
2018-03-14T14:00:00.247Z,15.50
2018-03-14T14:02:27.808Z,15.03
2018-03-14T14:04:55.289Z,15.00
2018-03-14T14:07:23.527Z,13.40
2018-03-14T14:09:50.988Z,13.60
2018-03-14T14:12:18.455Z,15.33
2018-03-14T14:14:45.937Z,14.10
2018-03-14T14:17:14.179Z,13.40
2018-03-14T14:19:41.859Z,13.23
2018-03-14T14:22:09.332Z,11.10
2018-03-14T14:24:38.578Z,11.47
2018-03-14T14:27:07.055Z,12.80
2018-03-14T14:29:34.538Z,14.37
2018-03-14T14:32:02.023Z,15.10
2018-03-14T14:34:30.252Z,14.40
2018-03-14T14:36:57.832Z,14.27
2018-03-14T14:39:25.396Z,14.77
2018-03-14T14:41:53.655Z,15.67
2018-03-14T14:44:21.144Z,16.03
2018-03-14T14:46:49.385Z,17.33
2018-03-14T14:49:16.878Z,15.43
2018-03-14T14:51:45.136Z,16.60
2018-03-14T14:54:13.728Z,17.20
2018-03-14T14:56:41.188Z,15.50
2018-03-14T14:59:09.479Z,15.90
2018-03-14T15:01:37.707Z,16.87
2018-03-14T15:04:05.174Z,14.93
2018-03-14T15:06:32.662Z,15.67
2018-03-14T15:09:00.890Z,15.60
2018-03-14T15:11:28.359Z,15.73
2018-03-14T15:13:56.563Z,14.97
2018-03-14T15:16:24.798Z,16.53
2018-03-14T15:18:52.268Z,14.13
2018-03-14T15:21:19.861Z,16.03
2018-03-14T15:23:48.733Z,15.70
2018-03-14T15:26:16.283Z,14.80
2018-03-14T15:28:43.773Z,14.17
2018-03-14T15:31:12.055Z,15.50
2018-03-14T15:33:39.481Z,16.43
2018-03-14T15:36:06.970Z,15.30
2018-03-14T15:38:34.490Z,15.80
2018-03-14T15:41:02.023Z,15.83
2018-03-14T15:43:29.514Z,16.60
2018-03-14T15:45:57.752Z,16.73
2018-03-14T15:48:25.214Z,17.20
2018-03-14T15:50:52.791Z,16.07
2018-03-14T15:53:20.262Z,17.17
2018-03-14T15:55:47.723Z,16.00
2018-03-14T15:58:15.973Z,15.73
2018-03-14T16:00:43.431Z,14.40
2018-03-14T16:03:10.895Z,16.00
2018-03-14T16:05:38.386Z,14.10
2018-03-14T16:08:05.843Z,14.93
2018-03-14T16:10:33.379Z,15.53
2018-03-14T16:13:00.888Z,15.10
2018-03-14T16:15:28.355Z,14.07
2018-03-14T16:17:55.825Z,14.73
2018-03-14T16:20:23.403Z,15.40
2018-03-14T16:22:50.901Z,16.07
2018-03-14T16:25:18.721Z,13.53
2018-03-14T16:27:46.216Z,13.90
2018-03-14T16:30:14.315Z,14.63
2018-03-14T16:32:41.806Z,14.23
2018-03-14T16:35:09.302Z,12.23
2018-03-14T16:37:36.760Z,15.10
2018-03-14T16:40:04.235Z,14.87
2018-03-14T16:42:31.727Z,15.20
2018-03-14T16:44:59.200Z,14.50
2018-03-14T16:47:27.366Z,13.53
2018-03-14T16:49:54.932Z,13.93
2018-03-14T16:52:23.897Z,13.53
2018-03-14T16:54:51.375Z,13.00
2018-03-14T16:57:18.902Z,13.77
2018-03-14T16:59:46.378Z,13.20
2018-03-14T17:02:14.870Z,12.67
2018-03-14T17:04:42.388Z,14.40
2018-03-14T17:07:09.893Z,14.00
2018-03-14T17:09:37.387Z,14.23
2018-03-14T17:12:04.868Z,13.63
2018-03-14T17:14:32.398Z,13.20
2018-03-14T17:16:59.824Z,13.07
2018-03-14T17:19:27.299Z,12.90
2018-03-14T17:21:55.541Z,11.70
2018-03-14T17:24:23.004Z,11.80
2018-03-14T17:26:50.482Z,12.43
2018-03-14T17:29:18.931Z,12.67
2018-03-14T17:31:46.408Z,11.90
2018-03-14T17:34:13.894Z,15.77
2018-03-14T17:36:41.351Z,13.20
2018-03-14T17:39:08.813Z,12.87
2018-03-14T17:41:37.040Z,12.57
2018-03-14T17:44:04.519Z,10.50
2018-03-14T17:46:32.743Z,11.40
2018-03-14T17:49:00.285Z,11.60
2018-03-14T17:51:28.519Z,12.73
2018-03-14T17:53:55.984Z,11.77
2018-03-14T17:56:24.262Z,11.33
2018-03-14T17:58:52.503Z,10.63
2018-03-14T18:01:19.991Z,10.17
2018-03-14T18:03:48.246Z,10.13
2018-03-14T18:06:15.727Z,10.80
2018-03-14T18:08:43.967Z,9.73
2018-03-14T18:11:11.535Z,10.70
2018-03-14T18:13:38.991Z,9.47
2018-03-14T18:16:07.955Z,9.87
2018-03-14T18:18:35.442Z,10.70
2018-03-14T18:21:02.900Z,9.40
2018-03-14T18:23:30.384Z,10.87
2018-03-14T18:25:58.638Z,11.47
2018-03-14T18:28:26.102Z,11.00
2018-03-14T18:30:54.059Z,10.90
2018-03-14T18:33:21.625Z,11.10
2018-03-14T18:35:49.090Z,10.13
2018-03-14T18:38:17.370Z,10.90
2018-03-14T18:40:45.739Z,11.73
2018-03-14T18:43:13.202Z,11.13
2018-03-14T18:45:40.729Z,10.77
2018-03-14T18:48:08.239Z,10.80
2018-03-14T18:50:35.698Z,11.67
2018-03-14T18:53:03.171Z,12.30
2018-03-14T18:55:30.822Z,12.17
2018-03-14T18:57:58.342Z,12.03
2018-03-14T19:00:25.802Z,13.20
2018-03-14T19:02:54.052Z,13.70
2018-03-14T19:05:21.640Z,15.07
2018-03-14T19:07:49.906Z,16.77
2018-03-14T19:10:17.450Z,17.27
2018-03-14T19:12:44.919Z,16.30
2018-03-14T19:15:12.497Z,17.23
2018-03-14T19:17:40.743Z,20.73
2018-03-14T19:20:08.207Z,17.87
2018-03-14T19:22:35.674Z,18.27
2018-03-14T19:25:03.197Z,18.83
2018-03-14T19:27:30.691Z,18.80
2018-03-14T19:29:58.243Z,19.90
2018-03-14T19:32:25.805Z,20.23
2018-03-14T19:34:53.366Z,18.10
2018-03-14T19:37:21.639Z,19.07
2018-03-14T19:39:49.141Z,18.40
2018-03-14T19:42:16.627Z,19.80
2018-03-14T19:44:44.086Z,18.40
2018-03-14T19:47:11.570Z,16.77
2018-03-14T19:49:39.030Z,15.43
2018-03-14T19:52:08.271Z,14.03
2018-03-14T19:54:35.756Z,14.70
2018-03-14T19:57:04.280Z,14.07
2018-03-14T19:59:31.959Z,12.73
2018-03-14T20:01:59.498Z,11.53
2018-03-14T20:04:27.913Z,11.70
2018-03-14T20:06:56.613Z,11.40
2018-03-14T20:09:24.176Z,9.93
2018-03-14T20:11:51.713Z,10.80
2018-03-14T20:14:19.398Z,10.27
2018-03-14T20:16:47.688Z,9.90
2018-03-14T20:19:17.788Z,9.00
2018-03-14T20:21:45.459Z,8.70
2018-03-14T20:24:12.955Z,8.10
2018-03-14T20:26:41.365Z,7.23
2018-03-14T20:29:08.851Z,8.47
2018-03-14T20:31:36.308Z,7.77
2018-03-14T20:34:03.806Z,9.20
2018-03-14T20:36:32.056Z,7.90
2018-03-14T20:38:59.740Z,8.83
2018-03-14T20:41:27.189Z,7.40
2018-03-14T20:43:54.731Z,8.07
2018-03-14T20:46:23.803Z,8.77
2018-03-14T20:48:51.256Z,9.57
2018-03-14T20:51:18.748Z,9.63
2018-03-14T20:53:46.220Z,9.40
2018-03-14T20:56:14.525Z,8.83
2018-03-14T20:58:42.776Z,10.30
2018-03-14T21:01:11.015Z,9.33
2018-03-14T21:03:38.584Z,10.37
2018-03-14T21:06:06.116Z,10.27
2018-03-14T21:08:34.373Z,9.30
2018-03-14T21:11:06.078Z,10.20
2018-03-14T21:13:34.897Z,10.60
2018-03-14T21:16:05.552Z,11.40
2018-03-14T21:18:33.042Z,10.93
2018-03-14T21:21:00.914Z,11.60
2018-03-14T21:23:28.423Z,11.90
2018-03-14T21:25:56.026Z,12.73
2018-03-14T21:28:24.162Z,11.80
2018-03-14T21:30:51.677Z,12.33
2018-03-14T21:33:19.170Z,12.90
2018-03-14T21:35:46.807Z,12.57
2018-03-14T21:38:14.211Z,13.70
2018-03-14T21:40:42.725Z,12.83
2018-03-14T21:43:10.484Z,14.20
2018-03-14T21:45:37.955Z,16.70
2018-03-14T21:48:06.208Z,15.27
2018-03-14T21:50:33.706Z,15.53
2018-03-14T21:53:01.267Z,15.83
2018-03-14T21:55:38.718Z,15.60
2018-03-14T21:58:06.187Z,15.90
2018-03-14T22:00:33.679Z,16.33
2018-03-14T22:03:01.162Z,17.60
2018-03-14T22:05:28.655Z,17.00
2018-03-14T22:07:56.114Z,17.07
2018-03-14T22:10:23.586Z,16.63
2018-03-14T22:12:51.089Z,17.07
2018-03-14T22:15:18.568Z,17.17
2018-03-14T22:17:46.179Z,19.53
2018-03-14T22:20:13.620Z,17.70
2018-03-14T22:22:42.035Z,17.00
2018-03-14T22:25:09.510Z,18.30
2018-03-14T22:27:39.335Z,18.50
2018-03-14T22:30:07.590Z,17.67
2018-03-14T22:32:35.068Z,17.37
2018-03-14T22:35:02.543Z,18.43
2018-03-14T22:37:30.033Z,17.80
2018-03-14T22:39:57.495Z,17.73
2018-03-14T22:42:25.091Z,18.70
2018-03-14T22:44:52.573Z,18.50
2018-03-14T22:47:20.044Z,18.70
2018-03-14T22:49:48.270Z,19.27
2018-03-14T22:52:17.103Z,19.40
2018-03-14T22:54:45.339Z,20.37
2018-03-14T22:57:12.807Z,19.10
2018-03-14T22:59:40.953Z,21.77
2018-03-14T23:02:08.417Z,19.80
2018-03-14T23:04:35.904Z,21.40
2018-03-14T23:07:03.376Z,21.37
2018-03-14T23:09:31.647Z,21.13
2018-03-14T23:11:59.916Z,20.70
2018-03-14T23:14:27.479Z,21.90
2018-03-14T23:16:55.826Z,22.00
2018-03-14T23:19:23.282Z,22.37
2018-03-14T23:21:50.860Z,21.70
2018-03-14T23:24:19.842Z,23.90
2018-03-14T23:26:47.298Z,22.43
2018-03-14T23:29:15.551Z,21.40
2018-03-14T23:31:43.051Z,23.67
2018-03-14T23:34:10.619Z,22.10
2018-03-14T23:36:38.886Z,23.50
2018-03-14T23:39:08.291Z,22.70
2018-03-14T23:41:36.272Z,24.30
2018-03-14T23:44:04.520Z,23.37
2018-03-14T23:46:31.987Z,24.00
2018-03-14T23:48:59.543Z,24.83
2018-03-14T23:51:27.013Z,23.07
2018-03-14T23:53:59.084Z,23.10
2018-03-14T23:56:29.649Z,25.10
2018-03-14T23:58:58.037Z,24.07
